createdAt,value
2018-11-22T12:16:10.864Z,19.17
2018-11-22T12:18:39.512Z,16.90
2018-11-22T12:21:08.164Z,19.33
2018-11-22T12:23:36.801Z,17.37
2018-11-22T12:26:06.104Z,18.90
2018-11-22T12:28:34.740Z,16.50
2018-11-22T12:31:06.549Z,18.80
2018-11-22T12:33:38.440Z,18.20
2018-11-22T12:36:12.532Z,19.47
2018-11-22T12:38:41.467Z,17.90
2018-11-22T12:41:10.144Z,17.93
2018-11-22T12:43:38.791Z,17.57
2018-11-22T12:46:07.438Z,19.57
2018-11-22T12:48:36.109Z,19.23
2018-11-22T12:51:04.802Z,18.90
2018-11-22T12:53:33.447Z,19.30
2018-11-22T12:56:02.133Z,16.83
2018-11-22T12:58:30.791Z,18.57
2018-11-22T13:01:00.009Z,18.30
2018-11-22T13:03:28.712Z,17.30
2018-11-22T13:05:57.511Z,18.33
2018-11-22T13:08:26.163Z,17.87
2018-11-22T13:10:54.810Z,17.33
2018-11-22T13:13:23.440Z,18.03
2018-11-22T13:15:52.074Z,17.77
2018-11-22T13:18:20.769Z,19.67
2018-11-22T13:20:49.396Z,18.17
2018-11-22T13:23:18.022Z,18.70
2018-11-22T13:25:46.701Z,17.80
2018-11-22T13:28:15.340Z,18.90
2018-11-22T13:30:43.944Z,19.73
2018-11-22T13:33:12.643Z,19.00
2018-11-22T13:35:41.285Z,18.43
2018-11-22T13:38:09.927Z,18.70
2018-11-22T13:40:38.534Z,17.73
2018-11-22T13:43:07.216Z,18.17
2018-11-22T13:45:35.862Z,18.27
2018-11-22T13:48:04.509Z,17.97
2018-11-22T13:50:33.844Z,19.23
2018-11-22T13:53:04.804Z,18.70
2018-11-22T13:55:33.492Z,17.87
2018-11-22T13:58:02.168Z,16.80
2018-11-22T14:00:32.078Z,18.67
2018-11-22T14:03:03.198Z,18.60
2018-11-22T14:05:31.836Z,17.30
2018-11-22T14:08:00.685Z,19.17
2018-11-22T14:10:29.391Z,18.37
2018-11-22T14:12:58.029Z,17.33
2018-11-22T14:15:29.205Z,20.10
2018-11-22T14:18:00.696Z,19.90
2018-11-22T14:20:31.802Z,18.53
2018-11-22T14:23:00.418Z,19.73
2018-11-22T14:25:29.268Z,16.30
2018-11-22T14:27:57.939Z,18.63
2018-11-22T14:30:28.224Z,17.23
2018-11-22T14:32:56.880Z,18.57
2018-11-22T14:35:26.233Z,18.00
2018-11-22T14:37:54.897Z,18.97
2018-11-22T14:40:26.024Z,18.97
2018-11-22T14:42:55.244Z,16.10
2018-11-22T14:45:24.631Z,20.40
2018-11-22T14:47:54.568Z,18.70
2018-11-22T14:50:25.901Z,19.27
2018-11-22T14:53:01.235Z,19.03
2018-11-22T14:55:30.161Z,20.30
2018-11-22T14:57:58.796Z,18.47
2018-11-22T15:00:27.489Z,19.30
2018-11-22T15:02:56.123Z,19.63
2018-11-22T15:05:24.808Z,19.37
2018-11-22T15:07:53.649Z,17.00
2018-11-22T15:10:22.613Z,18.73
2018-11-22T15:12:51.663Z,18.33
2018-11-22T15:15:26.092Z,19.70
2018-11-22T15:17:55.656Z,20.20
2018-11-22T15:20:24.778Z,21.10
2018-11-22T15:22:54.815Z,19.53
2018-11-22T15:25:25.973Z,19.67
2018-11-22T15:27:54.711Z,18.57
2018-11-22T15:30:24.916Z,20.70
2018-11-22T15:32:53.613Z,17.93
2018-11-22T15:35:23.540Z,20.20
2018-11-22T15:37:52.737Z,19.97
2018-11-22T15:40:23.492Z,21.53
2018-11-22T15:42:53.473Z,18.83
2018-11-22T15:45:23.531Z,18.87
2018-11-22T15:47:52.210Z,19.13
2018-11-22T15:50:22.235Z,20.43
2018-11-22T15:52:50.856Z,19.50
2018-11-22T15:55:21.035Z,19.33
2018-11-22T15:57:49.729Z,18.73
2018-11-22T16:00:36.368Z,20.93
2018-11-22T16:03:05.186Z,20.50
2018-11-22T16:05:34.182Z,19.43
2018-11-22T16:08:02.809Z,19.10
2018-11-22T16:10:33.123Z,19.40
2018-11-22T16:13:03.944Z,18.57
2018-11-22T16:15:41.651Z,18.60
2018-11-22T16:18:10.267Z,19.27
2018-11-22T16:20:39.033Z,19.40
2018-11-22T16:23:07.647Z,19.37
2018-11-22T16:25:36.384Z,18.20
2018-11-22T16:28:05.571Z,18.07
2018-11-22T16:30:34.687Z,19.57
2018-11-22T16:33:03.373Z,19.73
2018-11-22T16:35:33.394Z,20.73
2018-11-22T16:38:01.542Z,21.60
2018-11-22T16:40:30.753Z,19.60
2018-11-22T16:43:00.805Z,21.90
2018-11-22T16:45:32.531Z,20.70
2018-11-22T16:48:02.824Z,21.30
2018-11-22T16:50:32.562Z,23.10
2018-11-22T16:53:01.248Z,21.80
2018-11-22T16:55:29.889Z,21.13
2018-11-22T16:58:00.085Z,21.97
2018-11-22T17:00:30.200Z,21.10
2018-11-22T17:03:00.640Z,20.93
2018-11-22T17:05:29.427Z,22.40
2018-11-22T17:07:58.265Z,22.40
2018-11-22T17:10:28.299Z,22.07
2018-11-22T17:12:58.234Z,21.50
2018-11-22T17:15:28.388Z,20.47
2018-11-22T17:17:57.985Z,22.30
2018-11-22T17:20:27.569Z,22.37
2018-11-22T17:22:56.212Z,21.17
2018-11-22T17:25:27.211Z,24.43
2018-11-22T17:27:57.437Z,23.23
2018-11-22T17:30:28.564Z,23.70
2018-11-22T17:32:57.189Z,24.70
2018-11-22T17:35:26.760Z,22.23
2018-11-22T17:37:56.793Z,23.60
2018-11-22T17:40:29.796Z,22.70
2018-11-22T17:42:58.444Z,22.50
2018-11-22T17:45:30.216Z,24.63
2018-11-22T17:47:58.929Z,21.33
2018-11-22T17:50:29.396Z,23.60
2018-11-22T17:52:58.100Z,23.67
2018-11-22T17:55:28.254Z,22.00
2018-11-22T17:57:56.892Z,22.50
2018-11-22T18:00:29.533Z,22.30
2018-11-22T18:02:59.388Z,23.60
2018-11-22T18:05:28.157Z,24.20
2018-11-22T18:07:56.755Z,23.43
2018-11-22T18:10:26.927Z,25.27
2018-11-22T18:12:56.290Z,25.63
2018-11-22T18:15:25.763Z,24.57
2018-11-22T18:17:55.200Z,24.57
2018-11-22T18:20:26.197Z,26.20
2018-11-22T18:22:55.917Z,24.70
2018-11-22T18:25:26.091Z,23.70
2018-11-22T18:27:55.055Z,20.17
2018-11-22T18:30:25.625Z,23.43
2018-11-22T18:32:57.675Z,22.10
2018-11-22T18:35:27.292Z,24.33
2018-11-22T18:37:55.940Z,21.60
2018-11-22T18:40:25.895Z,22.27
2018-11-22T18:42:56.432Z,21.70
2018-11-22T18:45:30.368Z,22.17
2018-11-22T18:48:00.246Z,22.70
2018-11-22T18:50:30.787Z,23.07
2018-11-22T18:52:59.665Z,21.97
2018-11-22T18:55:28.478Z,23.20
2018-11-22T18:57:57.164Z,20.00
2018-11-22T19:00:27.875Z,18.27
2018-11-22T19:02:58.887Z,19.90
2018-11-22T19:05:27.711Z,19.33
2018-11-22T19:07:57.220Z,21.10
2018-11-22T19:10:33.056Z,20.60
2018-11-22T19:13:03.997Z,21.33
2018-11-22T19:15:34.159Z,20.73
2018-11-22T19:18:02.917Z,21.17
2018-11-22T19:20:33.850Z,22.00
2018-11-22T19:23:03.711Z,20.30
2018-11-22T19:25:32.441Z,19.03
2018-11-22T19:28:02.140Z,19.17
2018-11-22T19:30:37.017Z,18.40
2018-11-22T19:33:02.640Z,22.27
2018-11-22T19:35:32.832Z,21.27
2018-11-22T19:38:04.646Z,20.07
2018-11-22T19:40:36.439Z,22.00
2018-11-22T19:43:06.599Z,22.53
2018-11-22T19:45:42.572Z,20.47
2018-11-22T19:48:13.081Z,21.87
2018-11-22T19:50:47.068Z,20.67
2018-11-22T19:53:17.670Z,20.37
2018-11-22T19:55:46.348Z,20.70
2018-11-22T19:58:18.173Z,22.00
2018-11-22T20:00:46.872Z,21.87
2018-11-22T20:03:15.530Z,22.40
2018-11-22T20:05:44.491Z,21.77
2018-11-22T20:08:16.368Z,19.00
2018-11-22T20:10:45.703Z,22.43
2018-11-22T20:13:14.336Z,21.10
2018-11-22T20:15:43.192Z,23.47
2018-11-22T20:18:12.542Z,21.93
2018-11-22T20:20:41.312Z,24.10
2018-11-22T20:23:10.320Z,23.13
2018-11-22T20:25:39.176Z,22.80
2018-11-22T20:28:07.828Z,22.07
2018-11-22T20:30:40.365Z,21.70
2018-11-22T20:33:09.134Z,21.07
2018-11-22T20:35:40.479Z,23.70
2018-11-22T20:38:09.410Z,21.90
2018-11-22T20:40:39.141Z,23.10
2018-11-22T20:43:07.787Z,22.57
2018-11-22T20:45:41.129Z,23.13
2018-11-22T20:48:07.664Z,20.93
2018-11-22T20:50:36.628Z,21.70
2018-11-22T20:53:05.511Z,21.57
2018-11-22T20:55:36.569Z,22.73
2018-11-22T20:58:06.111Z,22.37
2018-11-22T21:00:36.583Z,23.10
2018-11-22T21:03:05.865Z,24.97
2018-11-22T21:05:35.094Z,21.23
2018-11-22T21:08:03.360Z,23.30
2018-11-22T21:10:32.878Z,22.87
2018-11-22T21:13:01.531Z,22.73
2018-11-22T21:15:31.722Z,23.90
2018-11-22T21:18:02.203Z,22.90
2018-11-22T21:20:32.335Z,23.50
2018-11-22T21:23:00.982Z,23.07
2018-11-22T21:25:29.586Z,23.83
2018-11-22T21:27:58.250Z,23.40
2018-11-22T21:30:32.100Z,21.37
2018-11-22T21:33:01.222Z,21.90
2018-11-22T21:35:33.190Z,23.13
2018-11-22T21:38:02.552Z,22.07
2018-11-22T21:40:31.788Z,20.33
2018-11-22T21:43:00.709Z,22.87
2018-11-22T21:45:30.201Z,22.57
2018-11-22T21:47:58.833Z,23.20
2018-11-22T21:50:28.386Z,21.83
2018-11-22T21:52:57.111Z,21.70
2018-11-22T21:55:27.324Z,23.70
2018-11-22T21:57:57.360Z,23.00
2018-11-22T22:00:33.375Z,23.80
2018-11-22T22:03:03.657Z,23.20
2018-11-22T22:05:32.327Z,24.70
2018-11-22T22:08:00.935Z,24.60
2018-11-22T22:10:29.596Z,21.37
2018-11-22T22:12:58.281Z,23.53
2018-11-22T22:15:28.341Z,21.57
2018-11-22T22:17:57.034Z,22.90
2018-11-22T22:20:27.193Z,21.90
2018-11-22T22:22:55.892Z,20.23
2018-11-22T22:25:25.620Z,21.17
2018-11-22T22:27:54.628Z,20.97
2018-11-22T22:30:24.600Z,21.90
2018-11-22T22:32:54.464Z,21.10
2018-11-22T22:35:23.090Z,21.10
2018-11-22T22:37:51.795Z,20.30
2018-11-22T22:40:22.049Z,20.37
2018-11-22T22:42:51.735Z,19.33
2018-11-22T22:45:21.363Z,20.50
2018-11-22T22:47:50.607Z,20.27
2018-11-22T22:50:20.785Z,21.97
2018-11-22T22:52:52.368Z,20.37
2018-11-22T22:55:21.165Z,21.90
2018-11-22T22:57:49.865Z,21.00
2018-11-22T23:00:24.905Z,20.80
2018-11-22T23:02:55.007Z,20.40
2018-11-22T23:05:24.434Z,22.73
2018-11-22T23:07:53.168Z,20.50
2018-11-22T23:10:22.575Z,20.70
2018-11-22T23:12:51.313Z,22.40
2018-11-22T23:15:20.580Z,20.17
2018-11-22T23:17:49.276Z,22.03
2018-11-22T23:20:20.186Z,20.63
2018-11-22T23:22:49.447Z,20.73
2018-11-22T23:25:19.200Z,20.83
2018-11-22T23:27:47.868Z,20.87
2018-11-22T23:30:21.964Z,21.43
2018-11-22T23:32:51.876Z,20.60
2018-11-22T23:35:20.827Z,21.57
2018-11-22T23:37:49.839Z,20.20
2018-11-22T23:40:21.672Z,22.07
2018-11-22T23:42:50.311Z,21.80
2018-11-22T23:45:20.232Z,20.17
2018-11-22T23:47:49.368Z,20.87
2018-11-22T23:50:19.524Z,18.30
2018-11-22T23:52:49.409Z,20.07
2018-11-22T23:55:18.088Z,21.47
2018-11-22T23:57:46.771Z,20.90
